createdAt,value
2022-10-19T00:00:50.536Z,15.06
2022-10-19T00:03:23.136Z,15.02
2022-10-19T00:05:51.226Z,14.96
2022-10-19T00:08:19.076Z,14.92
2022-10-19T00:10:48.113Z,14.91
2022-10-19T00:13:15.920Z,14.90
2022-10-19T00:15:45.179Z,14.91
2022-10-19T00:18:13.066Z,14.93
2022-10-19T00:20:42.585Z,14.90
2022-10-19T00:23:10.699Z,14.91
2022-10-19T00:25:38.563Z,14.94
2022-10-19T00:28:06.834Z,14.97
2022-10-19T00:30:37.884Z,14.99
2022-10-19T00:33:05.957Z,14.98
2022-10-19T00:35:33.823Z,15.00
2022-10-19T00:38:03.177Z,14.97
2022-10-19T00:40:30.971Z,14.97
2022-10-19T00:42:58.960Z,14.95
2022-10-19T00:45:26.904Z,14.87
2022-10-19T00:47:55.397Z,14.82
2022-10-19T00:50:23.394Z,14.68
2022-10-19T00:52:51.197Z,14.65
2022-10-19T00:55:20.570Z,14.51
2022-10-19T00:57:48.625Z,14.51
2022-10-19T01:00:16.564Z,14.54
2022-10-19T01:02:44.778Z,14.55
2022-10-19T01:05:13.167Z,14.56
2022-10-19T01:07:41.025Z,14.58
2022-10-19T01:10:09.766Z,14.49
2022-10-19T01:12:52.745Z,14.46
2022-10-19T01:15:32.621Z,14.50
2022-10-19T01:18:08.568Z,14.59
2022-10-19T01:21:20.050Z,14.57
2022-10-19T01:24:11.198Z,14.67
2022-10-19T01:27:04.600Z,14.73
2022-10-19T01:29:54.622Z,14.76
2022-10-19T01:32:27.380Z,14.81
2022-10-19T01:35:04.188Z,14.83
2022-10-19T01:37:38.710Z,14.87
2022-10-19T01:40:10.786Z,14.88
2022-10-19T01:42:46.048Z,14.84
2022-10-19T01:45:21.123Z,14.87
2022-10-19T01:47:53.167Z,14.82
2022-10-19T01:50:28.579Z,14.83
2022-10-19T01:52:58.399Z,14.85
2022-10-19T01:55:28.651Z,14.88
2022-10-19T01:58:00.958Z,14.90
2022-10-19T02:00:32.649Z,14.89
2022-10-19T02:03:02.197Z,14.87
2022-10-19T02:05:32.869Z,14.84
2022-10-19T02:08:05.823Z,14.86
2022-10-19T02:10:36.403Z,14.83
2022-10-19T02:13:06.104Z,14.87
2022-10-19T02:15:37.974Z,14.88
2022-10-19T02:18:07.151Z,14.90
2022-10-19T02:20:37.478Z,14.93
2022-10-19T02:23:06.059Z,14.95
2022-10-19T02:25:34.593Z,14.96
2022-10-19T02:28:03.704Z,14.98
2022-10-19T02:30:31.859Z,15.00
2022-10-19T02:33:01.432Z,15.00
2022-10-19T02:35:29.389Z,14.94
2022-10-19T02:38:02.800Z,14.92
2022-10-19T02:40:35.883Z,14.90
2022-10-19T02:43:08.802Z,14.87
2022-10-19T02:45:40.052Z,14.85
2022-10-19T02:48:13.985Z,14.85
2022-10-19T02:50:44.848Z,14.89
2022-10-19T02:53:12.953Z,14.89
2022-10-19T02:58:14.242Z,14.92
2022-10-19T03:00:42.422Z,14.92
2022-10-19T03:03:12.196Z,14.92
2022-10-19T03:05:40.467Z,14.95
2022-10-19T03:08:08.328Z,14.95
2022-10-19T03:10:36.133Z,14.97
2022-10-19T03:13:04.080Z,14.94
2022-10-19T03:15:31.953Z,14.91
2022-10-19T03:17:59.718Z,14.90
2022-10-19T03:20:29.015Z,14.83
2022-10-19T03:22:56.813Z,14.82
2022-10-19T03:25:24.676Z,14.79
2022-10-19T03:27:52.445Z,14.72
2022-10-19T03:30:20.257Z,14.69
2022-10-19T03:32:48.256Z,14.71
2022-10-19T03:35:16.044Z,14.72
2022-10-19T03:37:45.293Z,14.73
2022-10-19T03:40:13.139Z,14.71
2022-10-19T03:42:40.902Z,14.67
2022-10-19T03:45:09.641Z,14.66
2022-10-19T03:47:37.412Z,14.67
2022-10-19T03:50:06.145Z,14.65
2022-10-19T03:52:34.254Z,14.63
2022-10-19T03:55:03.405Z,14.62
2022-10-19T03:57:31.433Z,14.60
2022-10-19T03:59:59.501Z,14.61
2022-10-19T04:02:27.322Z,14.62
2022-10-19T04:04:55.102Z,14.60
2022-10-19T04:07:23.191Z,14.58
2022-10-19T04:09:51.106Z,14.51
2022-10-19T04:12:20.255Z,14.51
2022-10-19T04:14:56.808Z,14.49
2022-10-19T04:17:25.955Z,14.46
2022-10-19T04:19:53.763Z,14.44
2022-10-19T04:22:21.545Z,14.41
2022-10-19T04:24:49.631Z,14.33
2022-10-19T04:27:17.795Z,14.23
2022-10-19T04:29:46.980Z,14.17
2022-10-19T04:32:14.846Z,14.13
2022-10-19T04:34:42.775Z,14.14
2022-10-19T04:37:10.637Z,14.17
2022-10-19T04:39:41.132Z,14.18
2022-10-19T04:42:09.181Z,14.17
2022-10-19T04:44:37.388Z,14.15
2022-10-19T04:47:06.663Z,14.15
2022-10-19T04:49:34.482Z,14.18
2022-10-19T04:52:02.412Z,14.17
2022-10-19T04:54:30.402Z,14.14
2022-10-19T04:56:58.227Z,14.11
2022-10-19T04:59:26.208Z,14.06
2022-10-19T05:01:54.082Z,14.03
2022-10-19T05:04:23.292Z,13.97
2022-10-19T05:06:51.144Z,13.91
2022-10-19T05:09:21.597Z,13.87
2022-10-19T05:11:51.657Z,13.80
2022-10-19T05:14:19.629Z,13.80
2022-10-19T05:16:47.560Z,13.83
2022-10-19T05:19:15.763Z,13.82
2022-10-19T05:21:44.971Z,13.72
2022-10-19T05:24:14.403Z,13.63
2022-10-19T05:26:42.505Z,13.61
2022-10-19T05:29:12.942Z,13.64
2022-10-19T05:31:41.187Z,13.64
2022-10-19T05:34:09.144Z,13.57
2022-10-19T05:36:39.530Z,13.52
2022-10-19T05:39:13.192Z,13.47
2022-10-19T05:41:41.880Z,13.49
2022-10-19T05:44:18.957Z,13.55
2022-10-19T05:46:47.441Z,13.59
2022-10-19T05:49:16.348Z,13.60
2022-10-19T05:51:44.632Z,13.61
2022-10-19T05:54:14.663Z,13.67
2022-10-19T05:56:43.286Z,13.70
2022-10-19T05:59:15.421Z,13.72
2022-10-19T06:01:43.382Z,13.72
2022-10-19T06:04:14.031Z,13.71
2022-10-19T06:06:43.175Z,13.74
2022-10-19T06:09:11.312Z,13.76
2022-10-19T06:11:42.350Z,13.76
2022-10-19T06:14:14.563Z,13.80
2022-10-19T06:16:42.632Z,13.81
2022-10-19T06:19:10.558Z,13.84
2022-10-19T06:21:40.695Z,13.89
2022-10-19T06:24:12.932Z,13.90
2022-10-19T06:26:42.272Z,13.90
2022-10-19T06:29:10.881Z,13.90
2022-10-19T06:31:38.998Z,13.91
2022-10-19T06:34:08.634Z,13.89
2022-10-19T06:36:36.543Z,13.88
2022-10-19T06:39:05.622Z,13.85
2022-10-19T06:41:34.239Z,13.81
2022-10-19T06:44:03.527Z,13.78
2022-10-19T06:46:32.336Z,13.79
2022-10-19T06:49:02.287Z,13.80
2022-10-19T06:51:32.022Z,13.81
2022-10-19T06:53:59.934Z,13.80
2022-10-19T06:56:28.202Z,13.80
2022-10-19T06:58:57.005Z,13.82
2022-10-19T07:01:26.626Z,13.84
2022-10-19T07:03:55.405Z,13.84
2022-10-19T07:06:23.680Z,13.88
2022-10-19T07:08:51.895Z,13.93
2022-10-19T07:11:22.459Z,14.00
2022-10-19T07:13:51.173Z,13.99
2022-10-19T07:16:21.313Z,14.05
2022-10-19T07:18:52.563Z,14.08
2022-10-19T07:21:22.868Z,14.13
2022-10-19T07:23:51.572Z,14.19
2022-10-19T07:26:23.813Z,14.26
2022-10-19T07:28:51.905Z,14.31
2022-10-19T07:31:22.000Z,14.39
2022-10-19T07:33:55.104Z,14.45
2022-10-19T07:36:25.101Z,14.55
2022-10-19T07:38:53.760Z,14.63
2022-10-19T07:41:23.468Z,14.73
2022-10-19T07:43:52.391Z,14.83
2022-10-19T07:46:22.663Z,14.90
2022-10-19T07:48:51.058Z,14.99
2022-10-19T07:51:21.412Z,15.07
2022-10-19T07:53:49.906Z,15.16
2022-10-19T07:56:20.948Z,15.16
2022-10-19T07:58:51.035Z,15.21
2022-10-19T08:01:21.795Z,15.23
2022-10-19T08:04:48.653Z,15.29
2022-10-19T08:06:39.712Z,15.27
2022-10-19T08:09:07.681Z,15.28
2022-10-19T08:11:36.794Z,15.30
2022-10-19T08:14:05.531Z,15.31
2022-10-19T08:16:37.476Z,15.34
2022-10-19T08:19:08.512Z,15.43
2022-10-19T08:21:37.457Z,15.48
2022-10-19T08:24:08.284Z,15.49
2022-10-19T08:26:38.143Z,15.53
2022-10-19T08:29:08.769Z,15.54
2022-10-19T08:31:36.846Z,15.59
2022-10-19T08:34:05.160Z,15.54
2022-10-19T08:36:35.751Z,15.57
2022-10-19T08:39:05.806Z,15.60
2022-10-19T08:41:45.583Z,15.62
2022-10-19T08:44:29.598Z,15.70
2022-10-19T08:47:07.711Z,15.69
2022-10-19T08:49:36.041Z,15.78
2022-10-19T08:52:08.653Z,15.87
2022-10-19T08:54:42.622Z,15.95
2022-10-19T08:57:25.442Z,15.97
2022-10-19T09:00:00.150Z,16.07
2022-10-19T09:02:41.297Z,16.10
2022-10-19T09:05:17.437Z,16.19
2022-10-19T09:07:54.993Z,16.27
2022-10-19T09:10:28.049Z,16.33
2022-10-19T09:13:01.814Z,16.35
2022-10-19T09:15:36.327Z,16.42
2022-10-19T09:18:04.846Z,16.48
2022-10-19T09:20:38.121Z,16.54
2022-10-19T09:23:13.594Z,16.65
2022-10-19T09:25:42.094Z,16.60
2022-10-19T09:28:27.327Z,16.62
2022-10-19T09:31:00.859Z,16.67
2022-10-19T09:33:34.030Z,16.77
2022-10-19T09:36:04.254Z,16.74
2022-10-19T09:38:32.874Z,16.75
2022-10-19T09:41:14.252Z,16.75
2022-10-19T09:43:51.015Z,16.81
2022-10-19T09:46:29.609Z,16.88
2022-10-19T09:49:01.750Z,16.93
2022-10-19T09:51:42.417Z,17.02
2022-10-19T09:54:28.873Z,17.08
2022-10-19T09:56:58.061Z,17.37
2022-10-19T09:59:35.818Z,17.50
2022-10-19T10:02:18.996Z,17.76
2022-10-19T10:04:48.769Z,17.92
2022-10-19T10:07:19.378Z,18.01
2022-10-19T10:09:48.473Z,18.24
2022-10-19T10:12:17.997Z,18.61
2022-10-19T10:14:51.454Z,18.99
2022-10-19T10:17:22.213Z,19.32
2022-10-19T10:20:08.135Z,19.63
2022-10-19T10:22:37.929Z,19.69
2022-10-19T10:25:17.431Z,19.68
2022-10-19T10:27:56.578Z,19.86
2022-10-19T10:30:28.261Z,20.10
2022-10-19T10:33:04.695Z,20.22
2022-10-19T10:35:53.991Z,20.24
2022-10-19T10:38:25.174Z,20.34
2022-10-19T10:40:56.283Z,20.30
2022-10-19T10:43:31.486Z,20.18
2022-10-19T10:46:07.342Z,19.99
2022-10-19T10:48:39.904Z,19.94
2022-10-19T10:51:21.155Z,19.83
2022-10-19T10:53:49.673Z,19.74
2022-10-19T10:56:27.709Z,19.53
2022-10-19T10:59:02.030Z,19.45
2022-10-19T11:01:38.271Z,19.46
2022-10-19T11:04:11.292Z,19.60
2022-10-19T11:06:46.929Z,19.88
2022-10-19T11:09:23.013Z,19.96
2022-10-19T11:11:55.975Z,20.13
2022-10-19T11:14:30.008Z,20.27
2022-10-19T11:17:04.461Z,20.39
2022-10-19T11:19:37.143Z,20.34
2022-10-19T11:22:16.259Z,20.26
2022-10-19T11:24:54.392Z,20.19
2022-10-19T11:27:35.408Z,20.24
2022-10-19T11:30:12.143Z,20.48
2022-10-19T11:32:50.154Z,20.81
2022-10-19T11:35:47.015Z,21.13
2022-10-19T11:38:30.378Z,21.39
2022-10-19T11:41:23.376Z,21.53
2022-10-19T11:44:07.048Z,21.66
2022-10-19T11:46:43.484Z,21.72
2022-10-19T11:49:23.898Z,21.75
2022-10-19T11:51:58.284Z,21.78
2022-10-19T11:54:39.186Z,21.70
2022-10-19T11:57:13.950Z,21.69
2022-10-19T12:00:13.729Z,21.59
2022-10-19T12:03:05.825Z,21.34
2022-10-19T12:05:47.609Z,21.30
2022-10-19T12:08:30.413Z,21.38
2022-10-19T12:11:06.356Z,21.51
2022-10-19T12:13:43.117Z,21.57
2022-10-19T12:16:13.960Z,21.56
2022-10-19T12:18:47.041Z,21.60
2022-10-19T12:21:23.993Z,21.64
2022-10-19T12:23:53.091Z,21.75
2022-10-19T12:26:23.462Z,21.75
2022-10-19T12:28:55.710Z,21.81
2022-10-19T12:31:26.670Z,21.71
2022-10-19T12:34:02.817Z,21.74
2022-10-19T12:36:39.430Z,21.78
2022-10-19T12:39:16.360Z,21.58
2022-10-19T12:41:52.404Z,21.30
2022-10-19T12:44:35.721Z,21.07
2022-10-19T12:47:11.396Z,20.96
2022-10-19T12:49:45.947Z,20.76
2022-10-19T12:52:17.628Z,20.67
2022-10-19T12:54:45.618Z,20.77
2022-10-19T12:57:29.532Z,20.82
2022-10-19T13:00:06.489Z,20.91
2022-10-19T13:02:37.766Z,21.07
2022-10-19T13:05:06.737Z,21.25
2022-10-19T13:07:37.966Z,21.33
2022-10-19T13:10:09.707Z,21.36
2022-10-19T13:12:47.131Z,21.33
2022-10-19T13:15:51.024Z,21.27
2022-10-19T13:19:07.249Z,20.98
2022-10-19T13:22:26.049Z,20.76
2022-10-19T13:25:33.505Z,20.65
2022-10-19T13:28:39.581Z,20.47
2022-10-19T13:31:26.096Z,20.41
2022-10-19T13:33:56.714Z,20.21
2022-10-19T13:36:27.074Z,20.17
2022-10-19T13:39:23.350Z,20.16
2022-10-19T13:41:57.318Z,20.20
2022-10-19T13:44:48.282Z,20.15
2022-10-19T13:47:47.825Z,20.20
2022-10-19T13:50:34.078Z,20.22
2022-10-19T13:53:23.294Z,20.19
2022-10-19T13:56:25.998Z,20.14
2022-10-19T13:59:32.417Z,20.20
2022-10-19T14:02:38.727Z,20.20
2022-10-19T14:05:23.846Z,20.25
2022-10-19T14:08:04.867Z,20.38
2022-10-19T14:10:56.130Z,20.52
2022-10-19T14:13:22.487Z,20.50
2022-10-19T14:16:03.693Z,20.53
2022-10-19T14:18:36.109Z,20.58
2022-10-19T14:21:19.589Z,20.49
2022-10-19T14:23:55.432Z,20.44
2022-10-19T14:26:26.844Z,20.41
2022-10-19T14:28:57.243Z,20.36
2022-10-19T14:31:31.253Z,20.25
2022-10-19T14:34:03.890Z,20.15
2022-10-19T14:36:38.041Z,20.08
2022-10-19T14:39:07.848Z,19.97
2022-10-19T14:41:37.859Z,19.95
2022-10-19T14:44:31.420Z,19.87
2022-10-19T14:47:01.683Z,19.84
2022-10-19T14:49:31.222Z,19.89
2022-10-19T14:52:06.555Z,19.89
2022-10-19T14:54:38.145Z,19.86
2022-10-19T14:57:10.245Z,19.84
2022-10-19T14:59:44.946Z,19.78
2022-10-19T15:02:19.237Z,19.75
2022-10-19T15:04:49.670Z,19.64
2022-10-19T15:07:21.812Z,19.51
2022-10-19T15:09:54.377Z,19.45
2022-10-19T15:12:26.882Z,19.33
2022-10-19T15:14:55.372Z,19.29
2022-10-19T15:17:26.856Z,19.24
2022-10-19T15:19:58.515Z,19.16
2022-10-19T15:22:39.775Z,19.02
2022-10-19T15:25:35.436Z,18.89
2022-10-19T15:28:34.868Z,18.84
2022-10-19T15:31:11.242Z,18.74
2022-10-19T15:33:40.711Z,18.66
2022-10-19T15:36:17.144Z,18.58
2022-10-19T15:38:46.333Z,18.56
2022-10-19T15:41:22.321Z,18.53
2022-10-19T15:43:52.922Z,18.49
2022-10-19T15:47:01.973Z,18.44
2022-10-19T15:49:54.645Z,18.33
2022-10-19T15:52:25.031Z,18.27
2022-10-19T15:54:54.531Z,18.18
2022-10-19T15:57:30.030Z,18.08
2022-10-19T16:00:02.580Z,18.03
2022-10-19T16:02:30.480Z,18.02
2022-10-19T16:04:58.305Z,17.96
2022-10-19T16:07:33.434Z,17.91
2022-10-19T16:10:01.668Z,17.87
2022-10-19T16:12:30.101Z,17.75
2022-10-19T16:14:57.978Z,17.71
2022-10-19T16:17:26.125Z,17.62
2022-10-19T16:19:53.979Z,17.53
2022-10-19T16:22:23.328Z,17.42
2022-10-19T16:25:05.110Z,17.39
2022-10-19T16:27:34.569Z,17.31
2022-10-19T16:30:03.141Z,17.25
2022-10-19T16:32:31.255Z,17.19
2022-10-19T16:34:59.127Z,17.09
2022-10-19T16:37:27.206Z,17.05
2022-10-19T16:39:59.250Z,17.03
2022-10-19T16:42:29.773Z,17.02
2022-10-19T16:44:58.549Z,16.94
2022-10-19T16:47:28.815Z,16.91
2022-10-19T16:50:00.900Z,16.83
2022-10-19T16:52:29.073Z,16.90
2022-10-19T16:54:58.573Z,16.72
2022-10-19T16:57:29.618Z,16.66
2022-10-19T16:59:57.727Z,16.55
2022-10-19T17:02:25.551Z,16.52
2022-10-19T17:04:53.380Z,16.53
2022-10-19T17:07:21.565Z,16.50
2022-10-19T17:09:53.709Z,16.41
2022-10-19T17:12:24.310Z,16.42
2022-10-19T17:14:52.325Z,16.26
2022-10-19T17:17:21.053Z,16.09
2022-10-19T17:19:49.607Z,15.95
2022-10-19T17:22:17.485Z,15.88
2022-10-19T17:24:46.580Z,15.86
2022-10-19T17:27:14.826Z,15.81
2022-10-19T17:29:44.184Z,15.77
2022-10-19T17:32:12.059Z,15.77
2022-10-19T17:34:40.296Z,15.76
2022-10-19T17:37:08.124Z,15.78
2022-10-19T17:39:35.954Z,15.78
2022-10-19T17:42:05.038Z,15.79
2022-10-19T17:44:33.188Z,15.77
2022-10-19T17:47:05.113Z,15.74
2022-10-19T17:49:33.103Z,15.76
2022-10-19T17:52:00.930Z,15.67
2022-10-19T17:54:28.808Z,15.64
2022-10-19T17:56:59.166Z,15.61
2022-10-19T17:59:35.003Z,15.61
2022-10-19T18:02:09.143Z,15.58
2022-10-19T18:04:37.397Z,15.54
2022-10-19T18:07:05.311Z,15.52
2022-10-19T18:09:33.100Z,15.49
2022-10-19T18:12:04.917Z,15.50
2022-10-19T18:14:35.220Z,15.51
2022-10-19T18:17:03.103Z,15.51
2022-10-19T18:19:32.662Z,15.50
2022-10-19T18:22:00.511Z,15.49
2022-10-19T18:24:28.847Z,15.50
2022-10-19T18:26:57.140Z,15.50
2022-10-19T18:29:27.132Z,15.48
2022-10-19T18:31:55.359Z,15.46
2022-10-19T18:34:25.491Z,15.47
2022-10-19T18:36:55.301Z,15.42
2022-10-19T18:39:23.835Z,15.39
2022-10-19T18:41:54.509Z,15.35
2022-10-19T18:44:26.455Z,15.28
2022-10-19T18:46:55.835Z,15.21
2022-10-19T18:49:23.998Z,15.15
2022-10-19T18:51:55.158Z,15.14
2022-10-19T18:54:26.358Z,15.08
2022-10-19T18:56:54.855Z,15.09
2022-10-19T18:59:23.073Z,15.03
2022-10-19T19:01:51.341Z,15.02
2022-10-19T19:04:19.519Z,14.98
2022-10-19T19:06:47.599Z,14.99
2022-10-19T19:09:17.342Z,14.96
2022-10-19T19:11:46.676Z,14.95
2022-10-19T19:14:16.427Z,14.91
2022-10-19T19:16:46.114Z,14.90
2022-10-19T19:19:16.291Z,14.83
2022-10-19T19:21:45.055Z,14.81
2022-10-19T19:24:14.938Z,14.78
2022-10-19T19:26:46.812Z,14.76
2022-10-19T19:29:16.340Z,14.77
2022-10-19T19:31:44.569Z,14.76
2022-10-19T19:34:13.034Z,14.73
2022-10-19T19:36:47.946Z,14.72
2022-10-19T19:39:17.128Z,14.70
2022-10-19T19:41:45.050Z,14.71
2022-10-19T19:44:12.871Z,14.68
2022-10-19T19:46:42.268Z,14.66
2022-10-19T19:49:10.143Z,14.66
2022-10-19T19:51:38.184Z,14.63
2022-10-19T19:54:06.285Z,14.60
2022-10-19T19:56:34.170Z,14.55
2022-10-19T19:59:04.202Z,14.51
2022-10-19T20:01:33.165Z,14.47
2022-10-19T20:06:37.029Z,14.37
2022-10-19T20:09:06.185Z,14.33
2022-10-19T20:11:38.342Z,14.29
2022-10-19T20:14:09.308Z,14.26
2022-10-19T20:16:37.519Z,14.24
2022-10-19T20:19:10.705Z,14.20
2022-10-19T20:21:38.633Z,14.18
2022-10-19T20:24:07.215Z,14.22
2022-10-19T20:26:36.924Z,14.17
2022-10-19T20:29:05.609Z,14.12
2022-10-19T20:31:39.363Z,14.08
2022-10-19T20:34:14.044Z,14.08
2022-10-19T20:36:42.865Z,14.10
2022-10-19T20:39:11.177Z,14.06
2022-10-19T20:41:39.679Z,14.03
2022-10-19T20:44:07.667Z,14.00
2022-10-19T20:46:36.974Z,13.99
2022-10-19T20:49:04.943Z,13.93
2022-10-19T20:51:36.785Z,13.92
2022-10-19T20:54:06.280Z,13.90
2022-10-19T20:56:35.535Z,13.88
2022-10-19T20:59:05.812Z,13.81
2022-10-19T21:01:35.533Z,13.78
2022-10-19T21:04:05.147Z,13.77
2022-10-19T21:06:36.512Z,13.74
2022-10-19T21:09:04.713Z,13.72
2022-10-19T21:11:34.567Z,13.74
2022-10-19T21:14:05.077Z,13.74
2022-10-19T21:16:34.093Z,13.72
2022-10-19T21:19:03.563Z,13.70
2022-10-19T21:21:35.233Z,13.70
2022-10-19T21:24:05.545Z,13.68
2022-10-19T21:26:34.841Z,13.64
2022-10-19T21:29:03.179Z,13.65
2022-10-19T21:31:31.943Z,13.63
2022-10-19T21:33:59.764Z,13.61
2022-10-19T21:36:27.585Z,13.58
2022-10-19T21:38:57.617Z,13.56
2022-10-19T21:41:26.540Z,13.57
2022-10-19T21:43:54.781Z,13.53
2022-10-19T21:46:24.189Z,13.50
2022-10-19T21:48:53.392Z,13.47
2022-10-19T21:51:29.385Z,13.47
2022-10-19T21:53:59.398Z,13.48
2022-10-19T21:56:28.432Z,13.47
2022-10-19T21:58:56.484Z,13.45
2022-10-19T22:01:26.278Z,13.40
2022-10-19T22:03:58.419Z,13.40
2022-10-19T22:06:26.692Z,13.40
2022-10-19T22:08:55.254Z,13.39
2022-10-19T22:11:25.192Z,13.38
2022-10-19T22:13:55.783Z,13.38
2022-10-19T22:16:24.130Z,13.32
2022-10-19T22:18:52.570Z,13.31
2022-10-19T22:21:23.358Z,13.28
2022-10-19T22:23:55.459Z,13.26
2022-10-19T22:26:26.826Z,13.23
2022-10-19T22:28:56.234Z,13.20
2022-10-19T22:31:24.675Z,13.17
2022-10-19T22:33:52.522Z,13.24
2022-10-19T22:36:20.349Z,13.07
2022-10-19T22:38:48.144Z,13.05
2022-10-19T22:41:16.215Z,13.01
2022-10-19T22:43:45.555Z,12.98
2022-10-19T22:46:13.386Z,12.94
2022-10-19T22:48:41.177Z,12.96
2022-10-19T22:51:09.260Z,12.95
2022-10-19T22:53:37.078Z,12.94
2022-10-19T22:56:05.514Z,12.92
2022-10-19T22:58:33.837Z,12.82
2022-10-19T23:01:06.947Z,12.84
2022-10-19T23:03:35.300Z,12.90
2022-10-19T23:06:03.116Z,12.89
2022-10-19T23:08:31.902Z,12.92
2022-10-19T23:10:59.736Z,12.86
2022-10-19T23:13:27.851Z,12.81
2022-10-19T23:15:55.695Z,12.84
2022-10-19T23:18:24.972Z,12.83
2022-10-19T23:20:57.257Z,12.74
2022-10-19T23:23:25.672Z,12.72
2022-10-19T23:26:01.314Z,12.70
2022-10-19T23:28:29.776Z,12.65
2022-10-19T23:30:58.655Z,12.65
2022-10-19T23:33:27.949Z,12.66
2022-10-19T23:35:55.729Z,12.70
2022-10-19T23:38:23.573Z,12.60
2022-10-19T23:40:51.366Z,12.62
2022-10-19T23:43:19.182Z,12.70
2022-10-19T23:45:47.292Z,12.74
2022-10-19T23:48:15.181Z,12.67
2022-10-19T23:50:44.708Z,12.68
2022-10-19T23:53:13.289Z,12.70
2022-10-19T23:55:41.343Z,12.74
2022-10-19T23:58:09.565Z,12.77
